sensor_id;sensor_type;location;lat;lon;timestamp;P1;durP1;ratioP1;P2;durP2;ratioP2
30020;SDS011;16861;52.294;7.760;2023-10-09T00:01:04;12.02;;;5.10;;
30020;SDS011;16861;52.294;7.760;2023-10-09T00:03:42;12.25;;;5.15;;
30020;SDS011;16861;52.294;7.760;2023-10-09T00:06:10;11.45;;;5.15;;
30020;SDS011;16861;52.294;7.760;2023-10-09T00:08:40;9.95;;;5.25;;
30020;SDS011;16861;52.294;7.760;2023-10-09T00:11:11;13.32;;;6.15;;
30020;SDS011;16861;52.294;7.760;2023-10-09T00:13:44;16.52;;;6.43;;
30020;SDS011;16861;52.294;7.760;2023-10-09T00:16:16;12.07;;;5.93;;
30020;SDS011;16861;52.294;7.760;2023-10-09T00:18:44;13.20;;;6.10;;
30020;SDS011;16861;52.294;7.760;2023-10-09T00:21:16;10.48;;;5.10;;
30020;SDS011;16861;52.294;7.760;2023-10-09T00:23:46;10.55;;;4.93;;
30020;SDS011;16861;52.294;7.760;2023-10-09T00:26:20;11.15;;;4.78;;
30020;SDS011;16861;52.294;7.760;2023-10-09T00:28:48;18.20;;;6.75;;
30020;SDS011;16861;52.294;7.760;2023-10-09T00:31:17;10.73;;;6.43;;
30020;SDS011;16861;52.294;7.760;2023-10-09T00:33:53;13.85;;;6.00;;
30020;SDS011;16861;52.294;7.760;2023-10-09T00:36:21;11.38;;;6.03;;
30020;SDS011;16861;52.294;7.760;2023-10-09T00:38:54;12.43;;;6.82;;
30020;SDS011;16861;52.294;7.760;2023-10-09T00:41:20;13.15;;;6.78;;
30020;SDS011;16861;52.294;7.760;2023-10-09T00:43:51;12.45;;;7.72;;
30020;SDS011;16861;52.294;7.760;2023-10-09T00:46:20;12.55;;;7.60;;
30020;SDS011;16861;52.294;7.760;2023-10-09T00:48:48;19.10;;;8.88;;
30020;SDS011;16861;52.294;7.760;2023-10-09T00:51:16;18.88;;;8.98;;
30020;SDS011;16861;52.294;7.760;2023-10-09T00:53:45;19.20;;;9.95;;
30020;SDS011;16861;52.294;7.760;2023-10-09T00:56:21;17.90;;;9.93;;
30020;SDS011;16861;52.294;7.760;2023-10-09T00:58:52;17.20;;;9.20;;
30020;SDS011;16861;52.294;7.760;2023-10-09T01:01:26;20.55;;;10.18;;
30020;SDS011;16861;52.294;7.760;2023-10-09T01:04:16;17.70;;;9.52;;
30020;SDS011;16861;52.294;7.760;2023-10-09T01:06:45;21.70;;;10.48;;
30020;SDS011;16861;52.294;7.760;2023-10-09T01:09:30;20.30;;;10.38;;
30020;SDS011;16861;52.294;7.760;2023-10-09T01:14:30;16.10;;;9.18;;
30020;SDS011;16861;52.294;7.760;2023-10-09T01:17:02;22.20;;;10.65;;
30020;SDS011;16861;52.294;7.760;2023-10-09T01:19:37;27.25;;;12.00;;
30020;SDS011;16861;52.294;7.760;2023-10-09T01:22:04;25.58;;;12.32;;
30020;SDS011;16861;52.294;7.760;2023-10-09T01:24:39;20.77;;;11.32;;
30020;SDS011;16861;52.294;7.760;2023-10-09T01:27:06;20.63;;;12.10;;
30020;SDS011;16861;52.294;7.760;2023-10-09T01:29:42;22.98;;;12.65;;
30020;SDS011;16861;52.294;7.760;2023-10-09T01:32:10;25.38;;;12.68;;
30020;SDS011;16861;52.294;7.760;2023-10-09T01:37:13;27.10;;;12.48;;
30020;SDS011;16861;52.294;7.760;2023-10-09T01:39:46;20.88;;;11.93;;
30020;SDS011;16861;52.294;7.760;2023-10-09T01:42:14;20.90;;;11.63;;
30020;SDS011;16861;52.294;7.760;2023-10-09T01:44:56;20.15;;;12.27;;
30020;SDS011;16861;52.294;7.760;2023-10-09T01:47:24;22.48;;;13.02;;
30020;SDS011;16861;52.294;7.760;2023-10-09T01:49:58;24.00;;;12.40;;
30020;SDS011;16861;52.294;7.760;2023-10-09T01:52:25;21.17;;;13.15;;
30020;SDS011;16861;52.294;7.760;2023-10-09T01:54:51;23.00;;;13.80;;
30020;SDS011;16861;52.294;7.760;2023-10-09T01:57:19;20.60;;;12.98;;
30020;SDS011;16861;52.294;7.760;2023-10-09T01:59:50;27.50;;;14.95;;
30020;SDS011;16861;52.294;7.760;2023-10-09T02:02:20;26.77;;;14.32;;
30020;SDS011;16861;52.294;7.760;2023-10-09T02:04:55;24.92;;;14.68;;
30020;SDS011;16861;52.294;7.760;2023-10-09T02:07:31;26.70;;;15.00;;
30020;SDS011;16861;52.294;7.760;2023-10-09T02:10:07;27.05;;;15.75;;
30020;SDS011;16861;52.294;7.760;2023-10-09T02:12:48;26.77;;;14.38;;
30020;SDS011;16861;52.294;7.760;2023-10-09T02:15:27;27.52;;;15.38;;
30020;SDS011;16861;52.294;7.760;2023-10-09T02:18:13;22.08;;;14.50;;
30020;SDS011;16861;52.294;7.760;2023-10-09T02:21:11;28.27;;;15.07;;
30020;SDS011;16861;52.294;7.760;2023-10-09T02:23:37;27.45;;;14.02;;
30020;SDS011;16861;52.294;7.760;2023-10-09T02:26:07;28.77;;;14.82;;
30020;SDS011;16861;52.294;7.760;2023-10-09T02:28:35;25.52;;;14.60;;
30020;SDS011;16861;52.294;7.760;2023-10-09T02:31:12;23.10;;;14.15;;
30020;SDS011;16861;52.294;7.760;2023-10-09T02:33:39;29.05;;;15.18;;
30020;SDS011;16861;52.294;7.760;2023-10-09T02:36:06;27.52;;;15.30;;
30020;SDS011;16861;52.294;7.760;2023-10-09T02:38:34;27.52;;;14.88;;
30020;SDS011;16861;52.294;7.760;2023-10-09T02:41:03;25.65;;;14.50;;
30020;SDS011;16861;52.294;7.760;2023-10-09T02:43:46;23.63;;;14.35;;
30020;SDS011;16861;52.294;7.760;2023-10-09T02:46:14;25.40;;;14.27;;
30020;SDS011;16861;52.294;7.760;2023-10-09T02:48:45;27.33;;;15.35;;
30020;SDS011;16861;52.294;7.760;2023-10-09T02:51:25;27.50;;;15.00;;
30020;SDS011;16861;52.294;7.760;2023-10-09T02:53:53;27.83;;;14.45;;
30020;SDS011;16861;52.294;7.760;2023-10-09T02:56:22;35.28;;;14.77;;
30020;SDS011;16861;52.294;7.760;2023-10-09T02:59:09;25.40;;;13.95;;
30020;SDS011;16861;52.294;7.760;2023-10-09T03:01:37;24.33;;;14.35;;
30020;SDS011;16861;52.294;7.760;2023-10-09T03:04:05;25.45;;;14.35;;
30020;SDS011;16861;52.294;7.760;2023-10-09T03:06:41;31.05;;;15.77;;
30020;SDS011;16861;52.294;7.760;2023-10-09T03:09:17;25.35;;;14.95;;
30020;SDS011;16861;52.294;7.760;2023-10-09T03:11:49;26.55;;;14.10;;
30020;SDS011;16861;52.294;7.760;2023-10-09T03:14:20;25.70;;;13.60;;
30020;SDS011;16861;52.294;7.760;2023-10-09T03:16:47;25.13;;;14.32;;
30020;SDS011;16861;52.294;7.760;2023-10-09T03:19:16;26.17;;;15.00;;
30020;SDS011;16861;52.294;7.760;2023-10-09T03:21:43;28.55;;;15.15;;
30020;SDS011;16861;52.294;7.760;2023-10-09T03:24:09;25.00;;;14.15;;
30020;SDS011;16861;52.294;7.760;2023-10-09T03:26:38;24.80;;;14.27;;
30020;SDS011;16861;52.294;7.760;2023-10-09T03:29:04;23.67;;;13.95;;
30020;SDS011;16861;52.294;7.760;2023-10-09T03:31:36;26.20;;;13.63;;
30020;SDS011;16861;52.294;7.760;2023-10-09T03:34:04;31.92;;;15.73;;
30020;SDS011;16861;52.294;7.760;2023-10-09T03:36:32;28.70;;;14.60;;
30020;SDS011;16861;52.294;7.760;2023-10-09T03:39:04;23.92;;;14.07;;
30020;SDS011;16861;52.294;7.760;2023-10-09T03:41:44;21.38;;;13.23;;
30020;SDS011;16861;52.294;7.760;2023-10-09T03:44:14;28.52;;;14.70;;
30020;SDS011;16861;52.294;7.760;2023-10-09T03:46:45;27.05;;;14.82;;
30020;SDS011;16861;52.294;7.760;2023-10-09T03:49:12;24.48;;;14.77;;
30020;SDS011;16861;52.294;7.760;2023-10-09T03:51:39;28.55;;;15.55;;
30020;SDS011;16861;52.294;7.760;2023-10-09T03:54:06;28.65;;;15.50;;
30020;SDS011;16861;52.294;7.760;2023-10-09T03:56:34;25.27;;;15.02;;
30020;SDS011;16861;52.294;7.760;2023-10-09T03:59:01;22.92;;;14.90;;
30020;SDS011;16861;52.294;7.760;2023-10-09T04:01:30;26.27;;;14.98;;
30020;SDS011;16861;52.294;7.760;2023-10-09T04:04:04;26.45;;;16.02;;
30020;SDS011;16861;52.294;7.760;2023-10-09T04:06:37;26.05;;;14.90;;
30020;SDS011;16861;52.294;7.760;2023-10-09T04:09:05;23.90;;;14.93;;
30020;SDS011;16861;52.294;7.760;2023-10-09T04:11:48;24.40;;;15.85;;
30020;SDS011;16861;52.294;7.760;2023-10-09T04:14:39;26.73;;;15.80;;
30020;SDS011;16861;52.294;7.760;2023-10-09T04:17:16;27.02;;;16.02;;
30020;SDS011;16861;52.294;7.760;2023-10-09T04:20:03;23.48;;;14.73;;
30020;SDS011;16861;52.294;7.760;2023-10-09T04:22:45;26.73;;;15.52;;
30020;SDS011;16861;52.294;7.760;2023-10-09T04:25:26;23.45;;;14.73;;
30020;SDS011;16861;52.294;7.760;2023-10-09T04:27:58;29.45;;;16.48;;
30020;SDS011;16861;52.294;7.760;2023-10-09T04:30:55;30.80;;;16.52;;
30020;SDS011;16861;52.294;7.760;2023-10-09T04:33:22;25.50;;;15.65;;
30020;SDS011;16861;52.294;7.760;2023-10-09T04:36:04;26.23;;;15.73;;
30020;SDS011;16861;52.294;7.760;2023-10-09T04:38:44;28.85;;;15.45;;
30020;SDS011;16861;52.294;7.760;2023-10-09T04:41:22;29.23;;;15.65;;
30020;SDS011;16861;52.294;7.760;2023-10-09T04:43:59;25.25;;;14.93;;
30020;SDS011;16861;52.294;7.760;2023-10-09T04:46:45;28.38;;;16.08;;
30020;SDS011;16861;52.294;7.760;2023-10-09T04:49:31;24.88;;;15.20;;
30020;SDS011;16861;52.294;7.760;2023-10-09T04:52:16;25.20;;;15.25;;
30020;SDS011;16861;52.294;7.760;2023-10-09T04:55:07;26.60;;;15.45;;
30020;SDS011;16861;52.294;7.760;2023-10-09T04:57:37;27.63;;;15.75;;
30020;SDS011;16861;52.294;7.760;2023-10-09T05:00:28;26.35;;;14.82;;
30020;SDS011;16861;52.294;7.760;2023-10-09T05:02:59;28.67;;;16.95;;
30020;SDS011;16861;52.294;7.760;2023-10-09T05:05:39;24.98;;;14.85;;
30020;SDS011;16861;52.294;7.760;2023-10-09T05:10:49;24.67;;;14.82;;
30020;SDS011;16861;52.294;7.760;2023-10-09T05:16:09;28.90;;;16.35;;
30020;SDS011;16861;52.294;7.760;2023-10-09T05:18:52;27.67;;;15.85;;
30020;SDS011;16861;52.294;7.760;2023-10-09T05:21:32;26.45;;;16.17;;
30020;SDS011;16861;52.294;7.760;2023-10-09T05:24:11;28.17;;;16.42;;
30020;SDS011;16861;52.294;7.760;2023-10-09T05:26:45;27.58;;;16.73;;
30020;SDS011;16861;52.294;7.760;2023-10-09T05:29:13;28.63;;;16.45;;
30020;SDS011;16861;52.294;7.760;2023-10-09T05:31:50;26.45;;;16.13;;
30020;SDS011;16861;52.294;7.760;2023-10-09T05:34:24;24.98;;;16.33;;
30020;SDS011;16861;52.294;7.760;2023-10-09T05:37:03;28.10;;;16.80;;
30020;SDS011;16861;52.294;7.760;2023-10-09T05:39:49;26.00;;;16.77;;
30020;SDS011;16861;52.294;7.760;2023-10-09T05:42:28;35.08;;;18.23;;
30020;SDS011;16861;52.294;7.760;2023-10-09T05:47:49;30.15;;;17.80;;
30020;SDS011;16861;52.294;7.760;2023-10-09T05:50:20;31.45;;;17.35;;
30020;SDS011;16861;52.294;7.760;2023-10-09T05:52:54;27.75;;;17.42;;
30020;SDS011;16861;52.294;7.760;2023-10-09T05:55:24;28.52;;;17.25;;
30020;SDS011;16861;52.294;7.760;2023-10-09T05:57:52;30.27;;;17.90;;
30020;SDS011;16861;52.294;7.760;2023-10-09T06:03:10;29.40;;;16.50;;
30020;SDS011;16861;52.294;7.760;2023-10-09T06:05:50;28.88;;;17.23;;
30020;SDS011;16861;52.294;7.760;2023-10-09T06:08:29;31.35;;;18.17;;
30020;SDS011;16861;52.294;7.760;2023-10-09T06:11:09;27.95;;;17.55;;
30020;SDS011;16861;52.294;7.760;2023-10-09T06:13:58;28.33;;;17.25;;
30020;SDS011;16861;52.294;7.760;2023-10-09T06:19:32;28.03;;;17.23;;
30020;SDS011;16861;52.294;7.760;2023-10-09T06:25:46;27.55;;;17.23;;
30020;SDS011;16861;52.294;7.760;2023-10-09T06:28:22;32.67;;;18.27;;
30020;SDS011;16861;52.294;7.760;2023-10-09T06:30:59;27.95;;;17.15;;
30020;SDS011;16861;52.294;7.760;2023-10-09T06:33:46;30.17;;;17.35;;
30020;SDS011;16861;52.294;7.760;2023-10-09T06:36:42;28.40;;;16.70;;
30020;SDS011;16861;52.294;7.760;2023-10-09T06:39:19;26.63;;;17.15;;
30020;SDS011;16861;52.294;7.760;2023-10-09T06:42:09;34.42;;;18.08;;
30020;SDS011;16861;52.294;7.760;2023-10-09T06:44:56;29.05;;;16.77;;
30020;SDS011;16861;52.294;7.760;2023-10-09T06:47:25;28.10;;;18.08;;
30020;SDS011;16861;52.294;7.760;2023-10-09T06:49:52;30.13;;;18.48;;
30020;SDS011;16861;52.294;7.760;2023-10-09T06:52:37;31.60;;;18.17;;
30020;SDS011;16861;52.294;7.760;2023-10-09T06:55:21;29.67;;;17.90;;
30020;SDS011;16861;52.294;7.760;2023-10-09T06:57:59;28.75;;;17.00;;
30020;SDS011;16861;52.294;7.760;2023-10-09T07:00:27;30.95;;;19.02;;
30020;SDS011;16861;52.294;7.760;2023-10-09T07:03:12;31.02;;;18.45;;
30020;SDS011;16861;52.294;7.760;2023-10-09T07:05:39;28.73;;;18.00;;
30020;SDS011;16861;52.294;7.760;2023-10-09T07:08:31;30.75;;;16.77;;
30020;SDS011;16861;52.294;7.760;2023-10-09T07:11:04;26.40;;;16.77;;
30020;SDS011;16861;52.294;7.760;2023-10-09T07:13:49;26.30;;;16.58;;
30020;SDS011;16861;52.294;7.760;2023-10-09T07:19:05;29.52;;;16.90;;
30020;SDS011;16861;52.294;7.760;2023-10-09T07:21:58;24.43;;;16.80;;
30020;SDS011;16861;52.294;7.760;2023-10-09T07:24:29;26.95;;;16.55;;
30020;SDS011;16861;52.294;7.760;2023-10-09T07:27:16;24.73;;;16.05;;
30020;SDS011;16861;52.294;7.760;2023-10-09T07:29:44;27.92;;;16.58;;
30020;SDS011;16861;52.294;7.760;2023-10-09T07:32:16;32.03;;;17.77;;
30020;SDS011;16861;52.294;7.760;2023-10-09T07:34:50;35.88;;;17.80;;
30020;SDS011;16861;52.294;7.760;2023-10-09T07:39:49;26.73;;;15.63;;
30020;SDS011;16861;52.294;7.760;2023-10-09T07:42:24;26.27;;;16.42;;
30020;SDS011;16861;52.294;7.760;2023-10-09T07:45:13;25.50;;;17.10;;
30020;SDS011;16861;52.294;7.760;2023-10-09T07:47:49;29.90;;;16.88;;
30020;SDS011;16861;52.294;7.760;2023-10-09T07:50:35;29.90;;;17.83;;
30020;SDS011;16861;52.294;7.760;2023-10-09T07:53:15;28.20;;;17.02;;
30020;SDS011;16861;52.294;7.760;2023-10-09T07:55:52;29.58;;;18.35;;
30020;SDS011;16861;52.294;7.760;2023-10-09T07:58:23;27.50;;;17.15;;
30020;SDS011;16861;52.294;7.760;2023-10-09T08:00:53;27.42;;;18.27;;
30020;SDS011;16861;52.294;7.760;2023-10-09T08:03:34;27.38;;;17.58;;
30020;SDS011;16861;52.294;7.760;2023-10-09T08:06:02;28.55;;;18.05;;
30020;SDS011;16861;52.294;7.760;2023-10-09T08:08:47;30.02;;;17.67;;
30020;SDS011;16861;52.294;7.760;2023-10-09T08:11:32;29.70;;;17.73;;
30020;SDS011;16861;52.294;7.760;2023-10-09T08:14:21;26.25;;;16.40;;
30020;SDS011;16861;52.294;7.760;2023-10-09T08:16:59;28.23;;;17.15;;
30020;SDS011;16861;52.294;7.760;2023-10-09T08:19:58;28.38;;;17.25;;
30020;SDS011;16861;52.294;7.760;2023-10-09T08:22:37;32.17;;;17.30;;
30020;SDS011;16861;52.294;7.760;2023-10-09T08:25:10;27.55;;;17.02;;
30020;SDS011;16861;52.294;7.760;2023-10-09T08:27:53;28.30;;;17.92;;
30020;SDS011;16861;52.294;7.760;2023-10-09T08:33:17;26.83;;;16.00;;
30020;SDS011;16861;52.294;7.760;2023-10-09T08:35:55;27.25;;;17.60;;
30020;SDS011;16861;52.294;7.760;2023-10-09T08:38:31;27.25;;;16.58;;
30020;SDS011;16861;52.294;7.760;2023-10-09T08:41:06;26.40;;;17.15;;
30020;SDS011;16861;52.294;7.760;2023-10-09T08:43:52;28.77;;;18.27;;
30020;SDS011;16861;52.294;7.760;2023-10-09T08:46:20;29.08;;;17.63;;
30020;SDS011;16861;52.294;7.760;2023-10-09T09:55:09;25.95;;;16.83;;
30020;SDS011;16861;52.294;7.760;2023-10-09T09:57:49;27.58;;;16.52;;
30020;SDS011;16861;52.294;7.760;2023-10-09T10:00:22;25.48;;;17.95;;
30020;SDS011;16861;52.294;7.760;2023-10-09T10:03:12;30.63;;;17.83;;
30020;SDS011;16861;52.294;7.760;2023-10-09T10:05:42;26.25;;;17.77;;
30020;SDS011;16861;52.294;7.760;2023-10-09T10:08:16;26.38;;;18.02;;
30020;SDS011;16861;52.294;7.760;2023-10-09T10:10:46;28.48;;;17.95;;
30020;SDS011;16861;52.294;7.760;2023-10-09T10:13:16;28.70;;;17.40;;
30020;SDS011;16861;52.294;7.760;2023-10-09T10:15:58;25.33;;;16.98;;
30020;SDS011;16861;52.294;7.760;2023-10-09T10:18:32;28.58;;;17.60;;
30020;SDS011;16861;52.294;7.760;2023-10-09T10:21:09;25.73;;;16.58;;
30020;SDS011;16861;52.294;7.760;2023-10-09T10:23:56;26.02;;;16.80;;
30020;SDS011;16861;52.294;7.760;2023-10-09T10:26:32;25.83;;;17.00;;
30020;SDS011;16861;52.294;7.760;2023-10-09T10:29:18;31.48;;;18.00;;
30020;SDS011;16861;52.294;7.760;2023-10-09T10:31:53;25.10;;;17.40;;
30020;SDS011;16861;52.294;7.760;2023-10-09T10:34:24;25.23;;;15.85;;
30020;SDS011;16861;52.294;7.760;2023-10-09T10:36:51;27.50;;;16.30;;
30020;SDS011;16861;52.294;7.760;2023-10-09T10:42:09;23.67;;;15.38;;
30020;SDS011;16861;52.294;7.760;2023-10-09T10:44:55;27.90;;;16.00;;
30020;SDS011;16861;52.294;7.760;2023-10-09T10:47:25;23.38;;;17.15;;
30020;SDS011;16861;52.294;7.760;2023-10-09T10:49:59;24.02;;;16.15;;
30020;SDS011;16861;52.294;7.760;2023-10-09T10:52:38;23.60;;;16.02;;
30020;SDS011;16861;52.294;7.760;2023-10-09T10:55:12;25.15;;;16.58;;
30020;SDS011;16861;52.294;7.760;2023-10-09T10:57:58;23.98;;;15.57;;
30020;SDS011;16861;52.294;7.760;2023-10-09T11:00:28;28.55;;;17.02;;
30020;SDS011;16861;52.294;7.760;2023-10-09T11:03:17;27.92;;;16.45;;
30020;SDS011;16861;52.294;7.760;2023-10-09T11:05:56;26.83;;;16.42;;
30020;SDS011;16861;52.294;7.760;2023-10-09T11:08:48;25.67;;;16.05;;
30020;SDS011;16861;52.294;7.760;2023-10-09T11:11:21;29.58;;;15.90;;
30020;SDS011;16861;52.294;7.760;2023-10-09T11:13:48;27.05;;;16.55;;
30020;SDS011;16861;52.294;7.760;2023-10-09T11:16:25;24.85;;;15.43;;
30020;SDS011;16861;52.294;7.760;2023-10-09T11:19:01;29.48;;;18.90;;
30020;SDS011;16861;52.294;7.760;2023-10-09T11:21:39;23.00;;;15.73;;
30020;SDS011;16861;52.294;7.760;2023-10-09T11:24:08;27.23;;;16.00;;
30020;SDS011;16861;52.294;7.760;2023-10-09T11:26:50;28.65;;;15.88;;
30020;SDS011;16861;52.294;7.760;2023-10-09T11:29:22;24.60;;;15.07;;
30020;SDS011;16861;52.294;7.760;2023-10-09T11:34:27;25.42;;;17.10;;
30020;SDS011;16861;52.294;7.760;2023-10-09T11:39:37;22.35;;;16.05;;
30020;SDS011;16861;52.294;7.760;2023-10-09T11:42:20;23.83;;;15.20;;
30020;SDS011;16861;52.294;7.760;2023-10-09T11:45:07;22.35;;;15.27;;
30020;SDS011;16861;52.294;7.760;2023-10-09T11:47:50;23.83;;;15.40;;
30020;SDS011;16861;52.294;7.760;2023-10-09T11:50:39;22.05;;;14.40;;
30020;SDS011;16861;52.294;7.760;2023-10-09T11:53:10;21.65;;;14.13;;
30020;SDS011;16861;52.294;7.760;2023-10-09T11:55:49;26.50;;;14.82;;
30020;SDS011;16861;52.294;7.760;2023-10-09T11:58:20;26.33;;;14.93;;
30020;SDS011;16861;52.294;7.760;2023-10-09T12:03:31;23.30;;;14.45;;
30020;SDS011;16861;52.294;7.760;2023-10-09T12:06:00;24.67;;;15.07;;
30020;SDS011;16861;52.294;7.760;2023-10-09T12:08:32;22.15;;;14.55;;
30020;SDS011;16861;52.294;7.760;2023-10-09T12:11:01;23.23;;;14.25;;
30020;SDS011;16861;52.294;7.760;2023-10-09T12:13:35;24.20;;;13.73;;
30020;SDS011;16861;52.294;7.760;2023-10-09T12:16:04;26.98;;;15.50;;
30020;SDS011;16861;52.294;7.760;2023-10-09T12:18:37;24.80;;;14.45;;
30020;SDS011;16861;52.294;7.760;2023-10-09T12:21:06;21.02;;;13.98;;
30020;SDS011;16861;52.294;7.760;2023-10-09T12:23:33;18.20;;;12.93;;
30020;SDS011;16861;52.294;7.760;2023-10-09T12:26:03;17.52;;;11.48;;
30020;SDS011;16861;52.294;7.760;2023-10-09T12:28:30;20.45;;;12.75;;
30020;SDS011;16861;52.294;7.760;2023-10-09T12:31:01;19.80;;;12.07;;
30020;SDS011;16861;52.294;7.760;2023-10-09T12:33:28;20.15;;;11.93;;
30020;SDS011;16861;52.294;7.760;2023-10-09T12:35:56;15.70;;;10.32;;
30020;SDS011;16861;52.294;7.760;2023-10-09T12:38:27;18.92;;;10.40;;
30020;SDS011;16861;52.294;7.760;2023-10-09T12:41:04;15.98;;;9.77;;
30020;SDS011;16861;52.294;7.760;2023-10-09T12:43:45;16.90;;;9.90;;
30020;SDS011;16861;52.294;7.760;2023-10-09T12:46:13;14.45;;;8.73;;
30020;SDS011;16861;52.294;7.760;2023-10-09T12:48:43;17.85;;;9.35;;
30020;SDS011;16861;52.294;7.760;2023-10-09T12:51:12;15.38;;;9.43;;
30020;SDS011;16861;52.294;7.760;2023-10-09T12:53:43;18.38;;;9.52;;
30020;SDS011;16861;52.294;7.760;2023-10-09T12:56:10;12.43;;;8.25;;
30020;SDS011;16861;52.294;7.760;2023-10-09T12:58:42;14.88;;;8.02;;
30020;SDS011;16861;52.294;7.760;2023-10-09T13:01:19;16.88;;;8.48;;
30020;SDS011;16861;52.294;7.760;2023-10-09T13:03:46;14.65;;;8.02;;
30020;SDS011;16861;52.294;7.760;2023-10-09T13:06:16;12.73;;;7.60;;
30020;SDS011;16861;52.294;7.760;2023-10-09T13:08:50;15.15;;;8.20;;
30020;SDS011;16861;52.294;7.760;2023-10-09T13:11:18;16.10;;;8.00;;
30020;SDS011;16861;52.294;7.760;2023-10-09T13:13:45;14.38;;;7.63;;
30020;SDS011;16861;52.294;7.760;2023-10-09T13:16:20;15.27;;;7.50;;
30020;SDS011;16861;52.294;7.760;2023-10-09T13:18:52;14.43;;;6.85;;
30020;SDS011;16861;52.294;7.760;2023-10-09T13:21:23;12.25;;;6.78;;
30020;SDS011;16861;52.294;7.760;2023-10-09T13:23:52;17.63;;;7.22;;
30020;SDS011;16861;52.294;7.760;2023-10-09T13:26:24;12.00;;;6.50;;
30020;SDS011;16861;52.294;7.760;2023-10-09T13:29:00;13.40;;;6.25;;
30020;SDS011;16861;52.294;7.760;2023-10-09T13:31:28;15.80;;;6.85;;
30020;SDS011;16861;52.294;7.760;2023-10-09T13:33:58;10.45;;;6.40;;
30020;SDS011;16861;52.294;7.760;2023-10-09T13:36:26;12.35;;;6.55;;
30020;SDS011;16861;52.294;7.760;2023-10-09T13:38:54;15.10;;;6.15;;
30020;SDS011;16861;52.294;7.760;2023-10-09T13:41:22;11.40;;;6.05;;
30020;SDS011;16861;52.294;7.760;2023-10-09T13:43:52;12.00;;;5.78;;
30020;SDS011;16861;52.294;7.760;2023-10-09T13:46:18;13.23;;;5.95;;
30020;SDS011;16861;52.294;7.760;2023-10-09T13:48:46;11.77;;;6.35;;
30020;SDS011;16861;52.294;7.760;2023-10-09T13:51:15;14.20;;;6.38;;
30020;SDS011;16861;52.294;7.760;2023-10-09T13:53:45;18.15;;;6.78;;
30020;SDS011;16861;52.294;7.760;2023-10-09T13:56:20;13.85;;;6.25;;
30020;SDS011;16861;52.294;7.760;2023-10-09T13:58:50;9.98;;;5.78;;
30020;SDS011;16861;52.294;7.760;2023-10-09T14:01:18;11.38;;;6.50;;
30020;SDS011;16861;52.294;7.760;2023-10-09T14:03:54;12.50;;;6.60;;
30020;SDS011;16861;52.294;7.760;2023-10-09T14:06:25;14.50;;;6.30;;
30020;SDS011;16861;52.294;7.760;2023-10-09T14:08:59;10.88;;;5.45;;
30020;SDS011;16861;52.294;7.760;2023-10-09T14:11:31;12.10;;;6.47;;
30020;SDS011;16861;52.294;7.760;2023-10-09T14:13:58;22.63;;;7.03;;
30020;SDS011;16861;52.294;7.760;2023-10-09T14:16:37;14.27;;;6.60;;
30020;SDS011;16861;52.294;7.760;2023-10-09T14:19:09;13.82;;;5.97;;
30020;SDS011;16861;52.294;7.760;2023-10-09T14:21:39;13.32;;;6.55;;
30020;SDS011;16861;52.294;7.760;2023-10-09T14:24:06;14.55;;;6.85;;
30020;SDS011;16861;52.294;7.760;2023-10-09T14:26:45;12.57;;;6.57;;
30020;SDS011;16861;52.294;7.760;2023-10-09T14:29:13;13.05;;;6.47;;
30020;SDS011;16861;52.294;7.760;2023-10-09T14:31:43;15.73;;;6.60;;
30020;SDS011;16861;52.294;7.760;2023-10-09T14:34:15;13.18;;;6.25;;
30020;SDS011;16861;52.294;7.760;2023-10-09T14:36:42;24.05;;;6.65;;
30020;SDS011;16861;52.294;7.760;2023-10-09T14:39:10;14.65;;;6.50;;
30020;SDS011;16861;52.294;7.760;2023-10-09T14:41:45;11.75;;;6.13;;
30020;SDS011;16861;52.294;7.760;2023-10-09T14:44:11;13.70;;;6.60;;
30020;SDS011;16861;52.294;7.760;2023-10-09T14:46:43;17.50;;;7.07;;
30020;SDS011;16861;52.294;7.760;2023-10-09T14:49:09;13.25;;;5.70;;
30020;SDS011;16861;52.294;7.760;2023-10-09T14:51:40;14.85;;;6.00;;
30020;SDS011;16861;52.294;7.760;2023-10-09T14:54:10;18.48;;;6.60;;
30020;SDS011;16861;52.294;7.760;2023-10-09T14:56:41;15.90;;;6.38;;
30020;SDS011;16861;52.294;7.760;2023-10-09T14:59:08;12.15;;;5.65;;
30020;SDS011;16861;52.294;7.760;2023-10-09T15:01:37;10.60;;;5.75;;
30020;SDS011;16861;52.294;7.760;2023-10-09T15:04:04;11.38;;;6.35;;
30020;SDS011;16861;52.294;7.760;2023-10-09T15:06:30;10.60;;;5.82;;
30020;SDS011;16861;52.294;7.760;2023-10-09T15:08:57;11.05;;;5.97;;
30020;SDS011;16861;52.294;7.760;2023-10-09T15:11:35;18.55;;;6.43;;
30020;SDS011;16861;52.294;7.760;2023-10-09T15:14:05;11.77;;;5.57;;
30020;SDS011;16861;52.294;7.760;2023-10-09T15:16:32;17.00;;;5.60;;
30020;SDS011;16861;52.294;7.760;2023-10-09T15:18:59;13.95;;;5.53;;
30020;SDS011;16861;52.294;7.760;2023-10-09T15:21:29;12.10;;;5.53;;
30020;SDS011;16861;52.294;7.760;2023-10-09T15:23:59;11.60;;;5.65;;
30020;SDS011;16861;52.294;7.760;2023-10-09T15:26:25;12.43;;;5.82;;
30020;SDS011;16861;52.294;7.760;2023-10-09T15:29:01;12.43;;;5.13;;
30020;SDS011;16861;52.294;7.760;2023-10-09T15:31:30;8.60;;;5.68;;
30020;SDS011;16861;52.294;7.760;2023-10-09T15:33:59;15.48;;;5.55;;
30020;SDS011;16861;52.294;7.760;2023-10-09T15:36:26;10.25;;;5.88;;
30020;SDS011;16861;52.294;7.760;2023-10-09T15:38:55;14.05;;;6.07;;
30020;SDS011;16861;52.294;7.760;2023-10-09T15:41:28;15.68;;;5.90;;
30020;SDS011;16861;52.294;7.760;2023-10-09T15:44:00;12.30;;;5.35;;
30020;SDS011;16861;52.294;7.760;2023-10-09T15:46:27;10.70;;;5.18;;
30020;SDS011;16861;52.294;7.760;2023-10-09T15:49:00;8.35;;;5.60;;
30020;SDS011;16861;52.294;7.760;2023-10-09T15:51:27;14.82;;;6.22;;
30020;SDS011;16861;52.294;7.760;2023-10-09T15:53:56;14.05;;;5.60;;
30020;SDS011;16861;52.294;7.760;2023-10-09T15:56:23;9.63;;;5.45;;
30020;SDS011;16861;52.294;7.760;2023-10-09T15:58:50;13.77;;;6.05;;
30020;SDS011;16861;52.294;7.760;2023-10-09T16:01:20;10.88;;;5.90;;
30020;SDS011;16861;52.294;7.760;2023-10-09T16:03:48;14.73;;;5.40;;
30020;SDS011;16861;52.294;7.760;2023-10-09T16:06:19;14.75;;;5.95;;
30020;SDS011;16861;52.294;7.760;2023-10-09T16:08:47;13.00;;;6.28;;
30020;SDS011;16861;52.294;7.760;2023-10-09T16:11:20;11.13;;;5.63;;
30020;SDS011;16861;52.294;7.760;2023-10-09T16:13:59;10.20;;;5.75;;
30020;SDS011;16861;52.294;7.760;2023-10-09T16:16:26;10.27;;;5.53;;
30020;SDS011;16861;52.294;7.760;2023-10-09T16:18:55;9.98;;;5.30;;
30020;SDS011;16861;52.294;7.760;2023-10-09T16:21:24;13.20;;;6.85;;
30020;SDS011;16861;52.294;7.760;2023-10-09T16:23:51;14.55;;;6.22;;
30020;SDS011;16861;52.294;7.760;2023-10-09T16:26:20;11.10;;;5.55;;
30020;SDS011;16861;52.294;7.760;2023-10-09T16:28:51;13.45;;;5.75;;
30020;SDS011;16861;52.294;7.760;2023-10-09T16:31:20;11.57;;;5.65;;
30020;SDS011;16861;52.294;7.760;2023-10-09T16:33:49;19.48;;;6.13;;
30020;SDS011;16861;52.294;7.760;2023-10-09T16:36:16;9.95;;;5.53;;
30020;SDS011;16861;52.294;7.760;2023-10-09T16:38:43;13.15;;;5.53;;
30020;SDS011;16861;52.294;7.760;2023-10-09T16:41:10;13.57;;;5.55;;
30020;SDS011;16861;52.294;7.760;2023-10-09T16:43:36;11.57;;;5.75;;
30020;SDS011;16861;52.294;7.760;2023-10-09T16:46:03;9.20;;;4.97;;
30020;SDS011;16861;52.294;7.760;2023-10-09T16:48:36;11.70;;;5.13;;
30020;SDS011;16861;52.294;7.760;2023-10-09T16:51:06;10.55;;;5.47;;